createdAt,value
2023-03-08T00:01:04.078Z,994.3
2023-03-08T00:06:04.332Z,994.3
2023-03-08T00:11:03.731Z,994.3
2023-03-08T00:16:04.203Z,994.3
2023-03-08T00:21:03.766Z,994.4
2023-03-08T00:26:04.046Z,994.4
2023-03-08T00:31:03.718Z,994.5
2023-03-08T00:36:04.523Z,994.5
2023-03-08T00:41:04.530Z,994.5
2023-03-08T00:46:06.734Z,994.5
2023-03-08T00:51:04.124Z,994.7
2023-03-08T00:56:04.664Z,994.7
2023-03-08T01:01:04.129Z,994.8
2023-03-08T01:06:04.543Z,994.8
2023-03-08T01:11:03.993Z,994.8
2023-03-08T01:16:04.649Z,994.8
2023-03-08T01:21:04.056Z,994.9
2023-03-08T01:26:04.474Z,994.9
2023-03-08T01:31:03.765Z,994.9
2023-03-08T01:36:04.126Z,994.9
2023-03-08T01:41:04.655Z,994.9
2023-03-08T01:46:03.955Z,994.9
2023-03-08T01:51:04.425Z,994.7
2023-03-08T01:56:04.125Z,994.7
2023-03-08T02:01:04.383Z,994.6
2023-03-08T02:06:03.901Z,994.6
2023-03-08T02:11:04.448Z,994.6
2023-03-08T02:16:04.176Z,994.6
2023-03-08T02:21:04.536Z,994.4
2023-03-08T02:26:03.842Z,994.4
2023-03-08T02:31:05.630Z,994.4
2023-03-08T02:36:03.917Z,994.4
2023-03-08T02:41:04.411Z,994.4
2023-03-08T02:46:03.930Z,994.4
2023-03-08T02:51:04.271Z,994.4
2023-03-08T02:56:03.831Z,994.4
2023-03-08T03:01:03.746Z,994.4
2023-03-08T03:06:04.596Z,994.4
2023-03-08T03:11:04.459Z,994.4
2023-03-08T03:16:04.107Z,994.4
2023-03-08T03:21:04.306Z,994.4
2023-03-08T03:26:03.793Z,994.4
2023-03-08T03:31:04.168Z,994.5
2023-03-08T03:36:04.462Z,994.5
2023-03-08T03:41:32.570Z,994.5
2023-03-08T03:46:04.510Z,994.5
2023-03-08T03:51:04.783Z,994.8
2023-03-08T03:56:04.717Z,994.8
2023-03-08T04:01:04.505Z,994.7
2023-03-08T04:06:04.196Z,994.7
2023-03-08T04:11:04.237Z,994.7
2023-03-08T04:16:04.168Z,994.7
2023-03-08T04:21:04.800Z,994.8
2023-03-08T04:26:04.233Z,994.8
2023-03-08T04:31:03.951Z,994.8
2023-03-08T04:36:03.786Z,994.8
2023-03-08T04:41:04.212Z,994.8
2023-03-08T04:46:04.716Z,994.8
2023-03-08T04:51:03.971Z,994.8
2023-03-08T04:56:04.312Z,994.8
2023-03-08T05:01:04.653Z,994.8
2023-03-08T05:06:03.915Z,994.8
2023-03-08T05:11:04.286Z,994.8
2023-03-08T05:16:04.656Z,994.8
2023-03-08T05:21:04.288Z,994.7
2023-03-08T05:26:03.820Z,994.7
2023-03-08T05:31:04.382Z,994.8
2023-03-08T05:36:04.820Z,994.8
2023-03-08T05:41:04.534Z,994.8
2023-03-08T05:46:04.971Z,994.8
2023-03-08T05:51:04.564Z,994.7
2023-03-08T05:56:04.779Z,994.7
2023-03-08T06:01:04.601Z,994.7
2023-03-08T06:06:03.846Z,994.7
2023-03-08T06:11:04.191Z,994.7
2023-03-08T06:16:04.545Z,994.7
2023-03-08T06:21:04.821Z,994.8
2023-03-08T06:26:04.080Z,994.8
2023-03-08T06:31:04.281Z,994.8
2023-03-08T06:36:03.910Z,994.8
2023-03-08T06:41:04.231Z,994.8
2023-03-08T06:46:04.599Z,994.8
2023-03-08T06:51:03.985Z,994.8
2023-03-08T06:56:04.256Z,994.8
2023-03-08T07:01:04.458Z,994.8
2023-03-08T07:06:04.792Z,994.8
2023-03-08T07:11:04.208Z,994.8
2023-03-08T07:16:04.718Z,994.8
2023-03-08T07:21:04.051Z,994.7
2023-03-08T07:26:04.302Z,994.7
2023-03-08T07:31:03.930Z,994.8
2023-03-08T07:36:04.768Z,994.8
2023-03-08T07:41:04.123Z,994.8
2023-03-08T07:46:04.535Z,994.8
2023-03-08T07:51:04.090Z,994.8
2023-03-08T07:56:04.406Z,994.8
2023-03-08T08:01:04.659Z,994.8
2023-03-08T08:06:04.017Z,994.8
2023-03-08T08:11:04.453Z,994.8
2023-03-08T08:16:04.783Z,994.8
2023-03-08T08:21:04.290Z,994.8
2023-03-08T08:26:04.695Z,994.8
2023-03-08T08:31:03.893Z,994.9
2023-03-08T08:36:04.399Z,994.9
2023-03-08T08:41:04.876Z,994.9
2023-03-08T08:46:04.337Z,994.9
2023-03-08T08:51:04.740Z,994.6
2023-03-08T08:56:04.096Z,994.6
2023-03-08T09:01:04.498Z,994.7
2023-03-08T09:06:04.756Z,994.7
2023-03-08T09:11:04.304Z,994.7
2023-03-08T09:16:04.379Z,994.7
2023-03-08T09:21:05.144Z,994.8
2023-03-08T09:26:04.662Z,994.8
2023-03-08T09:31:04.311Z,994.8
2023-03-08T09:36:04.689Z,994.8
2023-03-08T09:41:04.568Z,994.8
2023-03-08T09:46:04.062Z,994.8
2023-03-08T09:51:04.659Z,994.8
2023-03-08T09:56:04.449Z,994.8
2023-03-08T10:01:04.801Z,994.7
2023-03-08T10:06:04.493Z,994.7
2023-03-08T10:11:04.231Z,994.7
2023-03-08T10:16:04.766Z,994.7
2023-03-08T10:21:04.171Z,994.5
2023-03-08T10:26:04.316Z,994.5
2023-03-08T10:31:04.484Z,994.4
2023-03-08T10:36:04.004Z,994.4
2023-03-08T10:41:04.512Z,994.4
2023-03-08T10:46:04.875Z,994.4
2023-03-08T10:51:04.846Z,994.3
2023-03-08T10:56:04.262Z,994.3
2023-03-08T11:01:04.796Z,994.3
2023-03-08T11:06:04.241Z,994.3
2023-03-08T11:11:04.552Z,994.3
2023-03-08T11:16:04.943Z,994.3
2023-03-08T11:21:04.464Z,994.2
2023-03-08T11:26:04.748Z,994.2
2023-03-08T11:31:05.177Z,994
2023-03-08T11:36:04.503Z,994
2023-03-08T11:41:04.960Z,994
2023-03-08T11:46:04.188Z,994
2023-03-08T11:51:05.000Z,993.9
2023-03-08T11:56:04.358Z,993.9
2023-03-08T12:01:04.848Z,993.8
2023-03-08T12:06:04.295Z,993.8
2023-03-08T12:11:04.936Z,993.8
2023-03-08T12:16:04.438Z,993.8
2023-03-08T12:21:04.788Z,993.8
2023-03-08T12:26:04.225Z,993.8
2023-03-08T12:31:04.811Z,993.7
2023-03-08T12:36:04.260Z,993.7
2023-03-08T12:41:04.122Z,993.7
2023-03-08T12:46:04.659Z,993.7
2023-03-08T12:51:04.129Z,993.6
2023-03-08T12:56:04.534Z,993.6
2023-03-08T13:01:05.026Z,993.4
2023-03-08T13:06:04.395Z,993.4
2023-03-08T13:11:04.947Z,993.4
2023-03-08T13:16:04.146Z,993.4
2023-03-08T13:21:04.514Z,993.6
2023-03-08T13:26:04.846Z,993.6
2023-03-08T13:31:04.387Z,993.5
2023-03-08T13:36:04.188Z,993.5
2023-03-08T13:41:04.979Z,993.5
2023-03-08T13:46:04.573Z,993.5
2023-03-08T13:51:05.119Z,993.6
2023-03-08T13:56:04.410Z,993.6
2023-03-08T14:01:04.901Z,993.6
2023-03-08T14:06:04.343Z,993.6
2023-03-08T14:11:05.030Z,993.6
2023-03-08T14:16:04.872Z,993.6
2023-03-08T14:21:04.495Z,993.4
2023-03-08T14:26:04.436Z,993.4
2023-03-08T14:31:05.100Z,993.4
2023-03-08T14:36:04.426Z,993.4
2023-03-08T14:41:04.814Z,993.4
2023-03-08T14:46:04.381Z,993.4
2023-03-08T14:51:04.846Z,993.2
2023-03-08T14:56:04.706Z,993.2
2023-03-08T15:01:05.060Z,993.2
2023-03-08T15:06:04.940Z,993.2
2023-03-08T15:11:05.184Z,993.2
2023-03-08T15:16:04.341Z,993.2
2023-03-08T15:21:05.165Z,993.2
2023-03-08T15:26:04.988Z,993.2
2023-03-08T15:31:05.118Z,993.1
2023-03-08T15:36:04.927Z,993.1
2023-03-08T15:41:05.342Z,993.1
2023-03-08T15:46:04.475Z,993.1
2023-03-08T15:51:04.990Z,993
2023-03-08T15:56:04.468Z,993
2023-03-08T16:01:04.938Z,993
2023-03-08T16:06:05.001Z,993
2023-03-08T16:11:05.032Z,993
2023-03-08T16:16:04.932Z,993
2023-03-08T16:21:04.668Z,992.9
2023-03-08T16:26:14.653Z,992.9
2023-03-08T16:31:04.839Z,992.8
2023-03-08T16:36:05.059Z,992.8
2023-03-08T16:41:13.102Z,992.8
2023-03-08T16:46:04.804Z,992.8
2023-03-08T16:51:05.169Z,992.8
2023-03-08T16:56:04.521Z,992.8
2023-03-08T17:01:04.545Z,992.9
2023-03-08T17:06:04.973Z,992.9
2023-03-08T17:11:04.385Z,992.9
2023-03-08T17:16:04.998Z,992.9
2023-03-08T17:21:04.434Z,993.1
2023-03-08T17:26:04.789Z,993.1
2023-03-08T17:31:05.071Z,993.2
2023-03-08T17:36:04.351Z,993.2
2023-03-08T17:41:05.147Z,993.2
2023-03-08T17:46:04.720Z,993.2
2023-03-08T17:51:05.244Z,993.2
2023-03-08T17:56:04.457Z,993.2
2023-03-08T18:01:04.880Z,993.2
2023-03-08T18:06:05.072Z,993.2
2023-03-08T18:11:04.326Z,993.2
2023-03-08T18:16:04.721Z,993.2
2023-03-08T18:21:13.078Z,993.3
2023-03-08T18:26:04.571Z,993.3
2023-03-08T18:31:04.900Z,993.3
2023-03-08T18:36:04.507Z,993.3
2023-03-08T18:41:04.856Z,993.3
2023-03-08T18:46:05.142Z,993.3
2023-03-08T18:51:04.727Z,993.2
2023-03-08T18:56:04.924Z,993.2
2023-03-08T19:01:05.250Z,993.1
2023-03-08T19:06:04.779Z,993.1
2023-03-08T19:11:04.277Z,993.1
2023-03-08T19:16:04.872Z,993.1
2023-03-08T19:21:04.371Z,993
2023-03-08T19:26:04.801Z,993
2023-03-08T19:31:05.109Z,992.9
2023-03-08T19:36:04.287Z,992.9
2023-03-08T19:41:04.654Z,992.9
2023-03-08T19:46:04.973Z,992.9
2023-03-08T19:51:04.503Z,992.9
2023-03-08T19:56:04.844Z,992.9
2023-03-08T20:01:05.097Z,992.9
2023-03-08T20:06:04.371Z,992.9
2023-03-08T20:11:04.666Z,992.9
2023-03-08T20:16:04.702Z,992.9
2023-03-08T20:21:05.129Z,992.8
2023-03-08T20:26:04.320Z,992.8
2023-03-08T20:31:04.475Z,992.9
2023-03-08T20:36:04.509Z,992.9
2023-03-08T20:41:05.073Z,992.9
2023-03-08T20:46:04.602Z,992.9
2023-03-08T20:51:05.042Z,993.2
2023-03-08T20:56:05.530Z,993.2
2023-03-08T21:01:05.277Z,993.2
2023-03-08T21:06:04.401Z,993.2
2023-03-08T21:11:05.248Z,993.2
2023-03-08T21:16:04.719Z,993.2
2023-03-08T21:21:05.189Z,993.1
2023-03-08T21:26:04.965Z,993.1
2023-03-08T21:31:04.780Z,993.3
2023-03-08T21:36:04.503Z,993.3
2023-03-08T21:41:05.286Z,993.3
2023-03-08T21:46:05.019Z,993.3
2023-03-08T21:51:04.989Z,993.3
2023-03-08T21:56:04.990Z,993.3
2023-03-08T22:01:05.321Z,992.9
2023-03-08T22:06:05.056Z,992.9
2023-03-08T22:11:05.288Z,992.9
2023-03-08T22:16:04.672Z,992.9
2023-03-08T22:21:04.808Z,992.8
2023-03-08T22:26:05.145Z,992.8
2023-03-08T22:31:04.854Z,992.8
2023-03-08T22:36:05.430Z,992.8
2023-03-08T22:41:05.052Z,992.8
2023-03-08T22:46:04.420Z,992.8
2023-03-08T22:51:10.670Z,992.8
2023-03-08T22:56:05.017Z,992.8
2023-03-08T23:01:04.767Z,992.7
2023-03-08T23:06:04.559Z,992.7
2023-03-08T23:11:05.014Z,992.7
2023-03-08T23:16:04.595Z,992.7
2023-03-08T23:21:05.022Z,992.8
2023-03-08T23:26:05.411Z,992.8
2023-03-08T23:31:04.538Z,992.7
2023-03-08T23:36:04.954Z,992.7
2023-03-08T23:41:04.630Z,992.7
2023-03-08T23:46:05.100Z,992.7
2023-03-08T23:56:05.325Z,992.7
